createdAt,value
2022-12-01T00:00:34.335Z,98725.78
2022-12-01T00:01:37.250Z,98735.13
2022-12-01T00:02:40.324Z,98738.81
2022-12-01T00:03:43.575Z,98736.06
2022-12-01T00:04:49.017Z,98730.56
2022-12-01T00:06:03.262Z,98742.03
2022-12-01T00:07:06.211Z,98743.97
2022-12-01T00:08:09.079Z,98746.03
2022-12-01T00:09:30.649Z,98741.63
2022-12-01T00:10:34.083Z,98747.97
2022-12-01T00:11:38.432Z,98738.91
2022-12-01T00:12:43.902Z,98751.31
2022-12-01T00:13:46.717Z,98752.41
2022-12-01T00:14:55.416Z,98749.59
2022-12-01T00:15:58.253Z,98750.97
2022-12-01T00:17:01.095Z,98750.37
2022-12-01T00:18:06.438Z,98747.56
2022-12-01T00:19:09.427Z,98752.41
2022-12-01T00:20:12.791Z,98758.37
2022-12-01T00:21:17.047Z,98746.28
2022-12-01T00:22:19.887Z,98750.50
2022-12-01T00:23:22.937Z,98748.72
2022-12-01T00:24:25.941Z,98748.31
2022-12-01T00:25:29.365Z,98749.78
2022-12-01T00:26:32.217Z,98748.88
2022-12-01T00:27:35.071Z,98745.94
2022-12-01T00:28:37.895Z,98755.28
2022-12-01T00:29:40.987Z,98746.94
2022-12-01T00:30:43.790Z,98740.34
2022-12-01T00:31:46.652Z,98752.28
2022-12-01T00:32:49.594Z,98742.56
2022-12-01T00:33:52.439Z,98745.97
2022-12-01T00:34:55.385Z,98748.56
2022-12-01T00:36:00.218Z,98750.78
2022-12-01T00:37:03.690Z,98745.94
2022-12-01T00:38:06.829Z,98745.06
2022-12-01T00:39:10.101Z,98750.91
2022-12-01T00:40:13.835Z,98750.44
2022-12-01T00:41:16.929Z,98751.66
2022-12-01T00:42:21.236Z,98752.00
2022-12-01T00:43:25.151Z,98757.28
2022-12-01T00:44:28.097Z,98757.75
2022-12-01T00:45:31.247Z,98755.72
2022-12-01T00:46:34.567Z,98758.53
2022-12-01T00:47:37.777Z,98758.94
2022-12-01T00:48:40.943Z,98752.88
2022-12-01T00:49:47.551Z,98754.94
2022-12-01T00:50:55.251Z,98754.81
2022-12-01T00:51:58.504Z,98760.53
2022-12-01T00:53:01.374Z,98752.63
2022-12-01T00:54:04.252Z,98744.75
2022-12-01T00:55:07.344Z,98754.47
2022-12-01T00:56:10.413Z,98748.72
2022-12-01T00:57:13.943Z,98753.78
2022-12-01T00:58:16.856Z,98744.09
2022-12-01T00:59:19.855Z,98757.50
2022-12-01T01:00:22.940Z,98747.50
2022-12-01T01:01:25.923Z,98749.38
2022-12-01T01:02:28.909Z,98747.34
2022-12-01T01:03:34.009Z,98746.22
2022-12-01T01:04:37.361Z,98751.09
2022-12-01T01:05:42.362Z,98748.12
2022-12-01T01:06:45.738Z,98748.91
2022-12-01T01:07:48.692Z,98757.38
2022-12-01T01:08:51.784Z,98749.06
2022-12-01T01:09:54.536Z,98746.72
2022-12-01T01:10:59.897Z,98741.16
2022-12-01T01:12:02.935Z,98741.06
2022-12-01T01:13:05.947Z,98746.72
2022-12-01T01:14:09.271Z,98732.97
2022-12-01T01:15:12.064Z,98738.59
2022-12-01T01:16:18.741Z,98739.84
2022-12-01T01:17:21.624Z,98741.19
2022-12-01T01:18:24.978Z,98737.94
2022-12-01T01:19:29.872Z,98741.28
2022-12-01T01:20:33.345Z,98740.97
2022-12-01T01:21:36.369Z,98741.63
2022-12-01T01:22:39.288Z,98732.62
2022-12-01T01:23:42.742Z,98736.56
2022-12-01T01:24:45.573Z,98734.41
2022-12-01T01:25:48.457Z,98738.03
2022-12-01T01:26:51.269Z,98738.84
2022-12-01T01:27:54.969Z,98741.09
2022-12-01T01:29:00.560Z,98737.63
2022-12-01T01:30:04.558Z,98737.28
2022-12-01T01:31:09.617Z,98732.16
2022-12-01T01:32:14.008Z,98737.94
2022-12-01T01:33:16.814Z,98739.41
2022-12-01T01:34:19.888Z,98734.22
2022-12-01T01:35:23.134Z,98741.06
2022-12-01T01:36:26.074Z,98737.28
2022-12-01T01:37:28.909Z,98743.44
2022-12-01T01:38:33.194Z,98746.41
2022-12-01T01:39:36.015Z,98746.62
2022-12-01T01:40:46.694Z,98744.81
2022-12-01T01:41:49.625Z,98750.25
2022-12-01T01:42:52.494Z,98749.78
2022-12-01T01:43:58.962Z,98745.84
2022-12-01T01:45:05.926Z,98752.59
2022-12-01T01:46:12.682Z,98746.00
2022-12-01T01:47:20.650Z,98740.81
2022-12-01T01:48:23.406Z,98745.16
2022-12-01T01:49:26.465Z,98745.53
2022-12-01T01:50:29.579Z,98743.37
2022-12-01T01:51:46.967Z,98739.88
2022-12-01T01:52:57.237Z,98748.31
2022-12-01T01:54:06.850Z,98743.28
2022-12-01T01:55:09.968Z,98742.94
2022-12-01T01:56:12.894Z,98750.25
2022-12-01T01:57:21.296Z,98740.56
2022-12-01T01:58:24.696Z,98742.59
2022-12-01T01:59:32.021Z,98742.81
2022-12-01T02:00:36.136Z,98738.88
2022-12-01T02:01:39.302Z,98737.78
2022-12-01T02:02:45.120Z,98737.66
2022-12-01T02:03:49.250Z,98748.22
2022-12-01T02:04:59.618Z,98743.84
2022-12-01T02:06:05.080Z,98740.59
2022-12-01T02:07:10.929Z,98744.31
2022-12-01T02:08:13.906Z,98742.72
2022-12-01T02:09:16.865Z,98741.38
2022-12-01T02:10:24.622Z,98744.19
2022-12-01T02:12:02.961Z,98744.84
2022-12-01T02:13:28.118Z,98737.47
2022-12-01T02:14:46.070Z,98745.53
2022-12-01T02:16:09.862Z,98739.03
2022-12-01T02:17:45.750Z,98743.50
2022-12-01T02:18:59.612Z,98745.19
2022-12-01T02:20:27.543Z,98739.59
2022-12-01T02:22:00.221Z,98741.38
2022-12-01T02:23:03.158Z,98742.97
2022-12-01T02:24:27.767Z,98749.47
2022-12-01T02:25:42.470Z,98748.34
2022-12-01T02:27:07.346Z,98741.59
2022-12-01T02:28:55.054Z,98753.38
2022-12-01T02:30:19.807Z,98746.97
2022-12-01T02:31:47.718Z,98740.91
2022-12-01T02:32:59.353Z,98742.16
2022-12-01T02:34:15.178Z,98744.50
2022-12-01T02:35:26.826Z,98741.13
2022-12-01T02:36:43.898Z,98736.41
2022-12-01T02:38:10.214Z,98737.88
2022-12-01T02:39:35.620Z,98737.19
2022-12-01T02:41:10.937Z,98743.25
2022-12-01T02:42:43.971Z,98734.25
2022-12-01T02:43:59.303Z,98735.31
2022-12-01T02:45:06.259Z,98730.22
2022-12-01T02:46:21.047Z,98731.81
2022-12-01T02:47:24.570Z,98730.34
2022-12-01T02:48:31.342Z,98730.44
2022-12-01T02:49:39.580Z,98725.16
2022-12-01T02:50:45.387Z,98725.03
2022-12-01T02:51:50.542Z,98722.69
2022-12-01T02:52:54.739Z,98720.75
2022-12-01T02:53:59.807Z,98713.03
2022-12-01T02:55:02.580Z,98716.16
2022-12-01T02:56:10.352Z,98712.03
2022-12-01T02:57:14.833Z,98714.63
2022-12-01T02:58:18.021Z,98713.37
2022-12-01T02:59:20.912Z,98725.38
2022-12-01T03:00:23.835Z,98711.13
2022-12-01T03:01:52.749Z,98714.59
2022-12-01T03:03:13.807Z,98717.62
2022-12-01T03:04:25.599Z,98724.25
2022-12-01T03:05:39.856Z,98720.97
2022-12-01T03:06:50.273Z,98723.94
2022-12-01T03:08:14.942Z,98726.50
2022-12-01T03:09:49.157Z,98725.72
2022-12-01T03:10:53.956Z,98727.72
2022-12-01T03:12:26.130Z,98727.16
2022-12-01T03:13:46.070Z,98726.63
2022-12-01T03:15:01.947Z,98729.19
2022-12-01T03:16:37.243Z,98722.06
2022-12-01T03:17:55.497Z,98725.88
2022-12-01T03:19:10.372Z,98720.16
2022-12-01T03:20:21.094Z,98718.94
2022-12-01T03:21:41.732Z,98718.16
2022-12-01T03:22:54.211Z,98712.25
2022-12-01T03:24:04.131Z,98715.06
2022-12-01T03:25:09.496Z,98710.66
2022-12-01T03:26:18.476Z,98715.47
2022-12-01T03:27:27.336Z,98710.84
2022-12-01T03:28:36.810Z,98721.06
2022-12-01T03:29:50.180Z,98707.34
2022-12-01T03:30:58.973Z,98708.53
2022-12-01T03:32:10.794Z,98716.03
2022-12-01T03:33:21.771Z,98711.88
2022-12-01T03:34:56.826Z,98712.09
2022-12-01T03:36:12.050Z,98713.75
2022-12-01T03:37:25.347Z,98710.75
2022-12-01T03:38:30.455Z,98703.09
2022-12-01T03:39:36.300Z,98703.41
2022-12-01T03:40:40.632Z,98705.56
2022-12-01T03:41:54.228Z,98703.53
2022-12-01T03:43:05.092Z,98710.63
2022-12-01T03:44:10.256Z,98711.75
2022-12-01T03:45:19.874Z,98705.69
2022-12-01T03:46:48.666Z,98704.56
2022-12-01T03:47:51.992Z,98703.22
2022-12-01T03:48:55.124Z,98708.06
2022-12-01T03:50:00.578Z,98705.94
2022-12-01T03:51:06.026Z,98707.84
2022-12-01T03:52:32.261Z,98704.59
2022-12-01T03:54:01.520Z,98701.66
2022-12-01T03:55:16.464Z,98710.66
2022-12-01T03:56:27.094Z,98701.66
2022-12-01T03:57:37.141Z,98699.31
2022-12-01T03:58:45.086Z,98696.59
2022-12-01T03:59:48.499Z,98694.56
2022-12-01T04:00:55.680Z,98693.34
2022-12-01T04:03:04.562Z,98694.81
2022-12-01T04:04:10.258Z,98683.69
2022-12-01T04:05:14.077Z,98685.81
2022-12-01T04:06:16.894Z,98677.84
2022-12-01T04:07:21.520Z,98690.34
2022-12-01T04:08:25.447Z,98684.03
2022-12-01T04:09:28.829Z,98684.03
2022-12-01T04:10:33.577Z,98687.75
2022-12-01T04:11:55.231Z,98678.06
2022-12-01T04:12:59.849Z,98681.87
2022-12-01T04:14:02.763Z,98677.09
2022-12-01T04:15:12.896Z,98678.44
2022-12-01T04:16:15.841Z,98678.53
2022-12-01T04:17:19.434Z,98672.13
2022-12-01T04:18:22.493Z,98665.50
2022-12-01T04:19:27.118Z,98668.88
2022-12-01T04:20:30.052Z,98662.81
2022-12-01T04:21:32.861Z,98668.50
2022-12-01T04:22:35.881Z,98652.22
2022-12-01T04:23:57.127Z,98656.94
2022-12-01T04:25:00.177Z,98650.31
2022-12-01T04:26:05.180Z,98663.47
2022-12-01T04:27:08.256Z,98652.34
2022-12-01T04:28:11.322Z,98655.25
2022-12-01T04:29:15.140Z,98658.84
2022-12-01T04:30:18.780Z,98658.41
2022-12-01T04:31:22.000Z,98665.03
2022-12-01T04:32:25.148Z,98657.63
2022-12-01T04:33:29.779Z,98663.44
2022-12-01T04:34:33.097Z,98662.78
2022-12-01T04:35:35.878Z,98672.56
2022-12-01T04:36:39.266Z,98668.63
2022-12-01T04:37:42.110Z,98667.63
2022-12-01T04:38:45.097Z,98679.75
2022-12-01T04:39:48.393Z,98675.34
2022-12-01T04:40:52.305Z,98670.31
2022-12-01T04:41:55.160Z,98681.81
2022-12-01T04:42:58.081Z,98686.16
2022-12-01T04:44:00.989Z,98696.63
2022-12-01T04:45:04.494Z,98695.97
2022-12-01T04:46:08.053Z,98699.91
2022-12-01T04:47:11.299Z,98705.41
2022-12-01T04:48:14.100Z,98712.13
2022-12-01T04:49:17.044Z,98714.06
2022-12-01T04:50:19.859Z,98714.97
2022-12-01T04:51:23.587Z,98718.66
2022-12-01T04:52:29.474Z,98713.81
2022-12-01T04:53:37.258Z,98716.62
2022-12-01T04:54:40.063Z,98719.56
2022-12-01T04:55:42.896Z,98711.91
2022-12-01T04:56:46.019Z,98713.94
2022-12-01T04:57:49.023Z,98708.75
2022-12-01T04:58:52.107Z,98711.47
2022-12-01T04:59:55.179Z,98706.31
2022-12-01T05:01:10.726Z,98707.41
2022-12-01T05:02:13.708Z,98707.28
2022-12-01T05:03:16.859Z,98708.56
2022-12-01T05:04:19.741Z,98710.44
2022-12-01T05:05:22.834Z,98706.31
2022-12-01T05:06:28.097Z,98711.13
2022-12-01T05:07:31.252Z,98714.97
2022-12-01T05:08:34.654Z,98714.06
2022-12-01T05:09:38.175Z,98719.78
2022-12-01T05:10:41.018Z,98720.47
2022-12-01T05:11:43.954Z,98717.62
2022-12-01T05:12:46.711Z,98719.00
2022-12-01T05:13:50.512Z,98726.22
2022-12-01T05:14:53.322Z,98721.56
2022-12-01T05:16:05.485Z,98720.78
2022-12-01T05:17:08.341Z,98726.75
2022-12-01T05:18:11.146Z,98720.91
2022-12-01T05:19:32.812Z,98723.06
2022-12-01T05:20:54.535Z,98721.56
2022-12-01T05:21:57.530Z,98728.66
2022-12-01T05:23:09.805Z,98724.62
2022-12-01T05:24:16.702Z,98725.94
2022-12-01T05:25:19.881Z,98724.50
2022-12-01T05:26:22.752Z,98721.47
2022-12-01T05:27:25.732Z,98719.87
2022-12-01T05:28:28.932Z,98717.38
2022-12-01T05:29:33.226Z,98720.94
2022-12-01T05:30:35.970Z,98721.88
2022-12-01T05:31:42.107Z,98725.34
2022-12-01T05:32:45.093Z,98721.13
2022-12-01T05:33:47.939Z,98721.63
2022-12-01T05:34:50.727Z,98725.09
2022-12-01T05:35:54.793Z,98715.78
2022-12-01T05:37:00.999Z,98708.81
2022-12-01T05:38:07.808Z,98718.44
2022-12-01T05:39:11.037Z,98714.84
2022-12-01T05:40:14.211Z,98721.91
2022-12-01T05:41:17.150Z,98714.25
2022-12-01T05:42:19.956Z,98711.81
2022-12-01T05:43:28.692Z,98713.53
2022-12-01T05:44:32.375Z,98704.63
2022-12-01T05:45:35.864Z,98713.63
2022-12-01T05:46:38.730Z,98718.59
2022-12-01T05:47:41.505Z,98716.59
2022-12-01T05:48:44.180Z,98719.31
2022-12-01T05:49:47.357Z,98716.22
2022-12-01T05:50:50.503Z,98717.97
2022-12-01T05:51:53.409Z,98724.38
2022-12-01T05:52:56.607Z,98724.00
2022-12-01T05:54:04.098Z,98727.31
2022-12-01T05:55:07.752Z,98720.06
2022-12-01T05:56:11.090Z,98714.00
2022-12-01T05:57:14.039Z,98729.81
2022-12-01T05:58:16.899Z,98723.62
2022-12-01T05:59:19.555Z,98731.91
2022-12-01T06:00:22.759Z,98725.50
2022-12-01T06:01:25.641Z,98729.84
2022-12-01T06:02:28.528Z,98731.06
2022-12-01T06:03:32.159Z,98737.22
2022-12-01T06:04:35.052Z,98738.50
2022-12-01T06:05:37.926Z,98742.81
2022-12-01T06:06:41.180Z,98745.88
2022-12-01T06:07:44.140Z,98746.53
2022-12-01T06:08:47.335Z,98739.94
2022-12-01T06:09:50.362Z,98746.69
2022-12-01T06:10:53.799Z,98747.06
2022-12-01T06:11:56.581Z,98746.69
2022-12-01T06:12:59.554Z,98738.00
2022-12-01T06:14:02.682Z,98745.19
2022-12-01T06:15:07.372Z,98750.13
2022-12-01T06:16:10.202Z,98753.44
2022-12-01T06:17:13.062Z,98757.50
2022-12-01T06:18:15.920Z,98759.31
2022-12-01T06:19:18.763Z,98749.63
2022-12-01T06:20:21.867Z,98756.81
2022-12-01T06:21:24.874Z,98752.59
2022-12-01T06:22:27.778Z,98749.19
2022-12-01T06:23:30.972Z,98758.28
2022-12-01T06:24:34.033Z,98756.84
2022-12-01T06:25:36.981Z,98756.00
2022-12-01T06:26:39.953Z,98757.94
2022-12-01T06:27:42.732Z,98760.22
2022-12-01T06:28:45.511Z,98757.31
2022-12-01T06:29:50.463Z,98762.66
2022-12-01T06:30:56.630Z,98764.47
2022-12-01T06:32:05.751Z,98768.19
2022-12-01T06:33:08.721Z,98762.16
2022-12-01T06:34:11.758Z,98765.84
2022-12-01T06:35:34.933Z,98762.25
2022-12-01T06:36:37.760Z,98757.00
2022-12-01T06:37:40.761Z,98755.38
2022-12-01T06:38:43.722Z,98761.09
2022-12-01T06:39:48.358Z,98764.72
2022-12-01T06:40:52.568Z,98757.41
2022-12-01T06:41:56.150Z,98757.09
2022-12-01T06:43:05.038Z,98759.34
2022-12-01T06:44:07.756Z,98751.53
2022-12-01T06:45:11.325Z,98747.19
2022-12-01T06:46:14.261Z,98755.00
2022-12-01T06:47:17.263Z,98748.31
2022-12-01T06:48:20.328Z,98754.41
2022-12-01T06:49:23.197Z,98752.69
2022-12-01T06:50:26.186Z,98753.81
2022-12-01T06:51:29.030Z,98753.28
2022-12-01T06:52:31.882Z,98749.75
2022-12-01T06:53:34.924Z,98748.38
2022-12-01T06:54:37.832Z,98757.34
2022-12-01T06:55:40.745Z,98756.91
2022-12-01T06:56:44.454Z,98752.75
2022-12-01T06:57:47.678Z,98750.31
2022-12-01T06:58:50.983Z,98756.28
2022-12-01T06:59:54.429Z,98762.75
2022-12-01T07:00:59.111Z,98763.53
2022-12-01T07:02:03.308Z,98770.72
2022-12-01T07:03:06.208Z,98758.87
2022-12-01T07:04:09.163Z,98755.38
2022-12-01T07:05:12.026Z,98764.34
2022-12-01T07:06:15.355Z,98771.03
2022-12-01T07:07:18.189Z,98764.44
2022-12-01T07:08:21.137Z,98763.75
2022-12-01T07:09:23.994Z,98769.44
2022-12-01T07:10:28.124Z,98767.91
2022-12-01T07:11:32.761Z,98768.66
2022-12-01T07:12:35.978Z,98770.81
2022-12-01T07:13:39.529Z,98765.03
2022-12-01T07:14:42.782Z,98767.03
2022-12-01T07:15:45.643Z,98765.56
2022-12-01T07:16:48.927Z,98770.06
2022-12-01T07:17:51.911Z,98768.59
2022-12-01T07:18:55.091Z,98767.66
2022-12-01T07:19:58.245Z,98769.47
2022-12-01T07:21:02.703Z,98769.88
2022-12-01T07:22:05.706Z,98772.38
2022-12-01T07:23:08.420Z,98763.34
2022-12-01T07:24:12.870Z,98760.94
2022-12-01T07:25:15.724Z,98765.97
2022-12-01T07:26:19.151Z,98764.41
2022-12-01T07:27:22.195Z,98765.94
2022-12-01T07:28:25.094Z,98770.38
2022-12-01T07:29:28.197Z,98760.44
2022-12-01T07:30:31.567Z,98759.56
2022-12-01T07:31:34.693Z,98766.06
2022-12-01T07:32:37.717Z,98764.75
2022-12-01T07:33:40.686Z,98773.81
2022-12-01T07:34:44.774Z,98763.19
2022-12-01T07:35:47.608Z,98771.25
2022-12-01T07:36:50.405Z,98764.81
2022-12-01T07:38:03.034Z,98773.66
2022-12-01T07:39:07.787Z,98769.34
2022-12-01T07:40:11.355Z,98768.19
2022-12-01T07:41:16.677Z,98763.97
2022-12-01T07:42:19.861Z,98769.62
2022-12-01T07:43:22.735Z,98771.50
2022-12-01T07:44:25.659Z,98767.31
2022-12-01T07:45:28.413Z,98767.41
2022-12-01T07:46:31.565Z,98770.78
2022-12-01T07:47:34.870Z,98776.91
2022-12-01T07:48:39.345Z,98772.91
2022-12-01T07:49:42.423Z,98773.25
2022-12-01T07:50:48.283Z,98775.41
2022-12-01T07:51:51.417Z,98770.59
2022-12-01T07:52:54.287Z,98769.59
2022-12-01T07:54:01.607Z,98767.50
2022-12-01T07:55:04.754Z,98771.75
2022-12-01T07:56:08.937Z,98759.88
2022-12-01T07:57:15.240Z,98766.97
2022-12-01T07:58:18.509Z,98774.50
2022-12-01T07:59:21.392Z,98772.28
2022-12-01T08:00:28.243Z,98778.00
2022-12-01T08:01:31.515Z,98769.41
2022-12-01T08:02:34.456Z,98778.47
2022-12-01T08:03:38.149Z,98770.22
2022-12-01T08:04:40.955Z,98769.34
2022-12-01T08:05:43.832Z,98772.06
2022-12-01T08:06:46.600Z,98784.69
2022-12-01T08:07:49.516Z,98778.16
2022-12-01T08:08:53.158Z,98773.56
2022-12-01T08:09:58.234Z,98776.22
2022-12-01T08:11:03.344Z,98775.66
2022-12-01T08:12:06.418Z,98778.31
2022-12-01T08:13:12.857Z,98782.50
2022-12-01T08:14:18.753Z,98777.41
2022-12-01T08:15:21.624Z,98779.13
2022-12-01T08:16:25.521Z,98781.94
2022-12-01T08:17:28.536Z,98780.66
2022-12-01T08:18:31.408Z,98774.25
2022-12-01T08:19:34.327Z,98776.84
2022-12-01T08:20:37.409Z,98770.66
2022-12-01T08:21:43.261Z,98776.34
2022-12-01T08:22:46.240Z,98772.38
2022-12-01T08:23:58.774Z,98768.88
2022-12-01T08:25:02.027Z,98767.56
2022-12-01T08:26:07.863Z,98773.75
2022-12-01T08:27:10.790Z,98767.31
2022-12-01T08:28:13.626Z,98763.34
2022-12-01T08:29:20.232Z,98768.44
2022-12-01T08:30:27.220Z,98769.88
2022-12-01T08:31:33.192Z,98767.88
2022-12-01T08:32:39.194Z,98765.81
2022-12-01T08:33:42.119Z,98775.09
2022-12-01T08:34:51.848Z,98763.00
2022-12-01T08:35:57.102Z,98772.69
2022-12-01T08:36:59.921Z,98772.38
2022-12-01T08:38:03.262Z,98762.06
2022-12-01T08:39:08.616Z,98771.88
2022-12-01T08:40:11.874Z,98770.53
2022-12-01T08:41:15.293Z,98773.28
2022-12-01T08:42:18.306Z,98774.69
2022-12-01T08:43:49.505Z,98770.03
2022-12-01T08:44:44.077Z,98767.50
2022-12-01T08:45:47.028Z,98777.72
2022-12-01T08:46:50.211Z,98774.84
2022-12-01T08:47:59.071Z,98774.06
2022-12-01T08:49:03.474Z,98769.38
2022-12-01T08:50:07.149Z,98771.44
2022-12-01T08:51:19.411Z,98777.72
2022-12-01T08:52:41.157Z,98775.63
2022-12-01T08:53:47.263Z,98772.19
2022-12-01T08:54:50.099Z,98780.75
2022-12-01T08:55:53.000Z,98779.09
2022-12-01T08:56:55.953Z,98777.19
2022-12-01T08:57:58.950Z,98779.75
2022-12-01T08:59:02.444Z,98776.56
2022-12-01T09:00:09.289Z,98780.84
2022-12-01T09:01:14.665Z,98776.69
2022-12-01T09:02:22.737Z,98783.69
2022-12-01T09:03:26.692Z,98780.81
2022-12-01T09:04:29.736Z,98777.78
2022-12-01T09:05:32.561Z,98775.28
2022-12-01T09:06:40.826Z,98789.31
2022-12-01T09:07:45.988Z,98782.88
2022-12-01T09:08:49.348Z,98779.28
2022-12-01T09:09:52.338Z,98787.22
2022-12-01T09:10:55.193Z,98786.63
2022-12-01T09:11:58.414Z,98785.84
2022-12-01T09:13:01.569Z,98780.75
2022-12-01T09:14:04.576Z,98785.50
2022-12-01T09:15:07.892Z,98779.53
2022-12-01T09:16:14.137Z,98776.34
2022-12-01T09:17:18.009Z,98790.78
2022-12-01T09:18:21.156Z,98780.72
2022-12-01T09:19:25.223Z,98780.25
2022-12-01T09:20:28.199Z,98777.06
2022-12-01T09:21:33.932Z,98775.69
2022-12-01T09:22:36.761Z,98778.84
2022-12-01T09:23:40.051Z,98780.06
2022-12-01T09:24:42.977Z,98777.94
2022-12-01T09:25:46.016Z,98779.06
2022-12-01T09:26:48.903Z,98785.78
2022-12-01T09:27:52.008Z,98771.84
2022-12-01T09:29:06.890Z,98783.06
2022-12-01T09:30:10.119Z,98766.75
2022-12-01T09:31:14.502Z,98765.03
2022-12-01T09:32:18.336Z,98770.78
2022-12-01T09:33:21.252Z,98765.84
2022-12-01T09:34:25.472Z,98770.66
2022-12-01T09:35:30.472Z,98762.94
2022-12-01T09:36:34.982Z,98766.50
2022-12-01T09:37:37.959Z,98762.03
2022-12-01T09:38:41.026Z,98774.28
2022-12-01T09:39:44.229Z,98767.69
2022-12-01T09:40:47.487Z,98764.56
2022-12-01T09:42:08.514Z,98764.34
2022-12-01T09:43:20.315Z,98771.69
2022-12-01T09:44:43.699Z,98769.19
2022-12-01T09:45:56.029Z,98760.66
2022-12-01T09:47:13.693Z,98768.03
2022-12-01T09:48:31.423Z,98762.66
2022-12-01T09:49:50.527Z,98767.91
2022-12-01T09:50:53.964Z,98766.50
2022-12-01T09:51:56.786Z,98761.09
2022-12-01T09:53:07.390Z,98764.41
2022-12-01T09:54:14.182Z,98764.44
2022-12-01T09:55:19.671Z,98756.53
2022-12-01T09:56:29.476Z,98758.87
2022-12-01T09:57:41.257Z,98760.34
2022-12-01T09:58:44.407Z,98758.94
2022-12-01T09:59:52.284Z,98758.25
2022-12-01T10:00:55.610Z,98750.66
2022-12-01T10:02:02.530Z,98745.81
2022-12-01T10:03:28.449Z,98742.59
2022-12-01T10:04:59.319Z,98741.91
2022-12-01T10:06:28.743Z,98733.78
2022-12-01T10:07:38.529Z,98742.63
2022-12-01T10:08:48.014Z,98734.56
2022-12-01T10:10:03.213Z,98741.09
2022-12-01T10:11:22.245Z,98735.75
2022-12-01T10:12:30.212Z,98734.56
2022-12-01T10:13:34.157Z,98742.13
2022-12-01T10:14:37.982Z,98734.34
2022-12-01T10:16:08.579Z,98743.63
2022-12-01T10:17:49.279Z,98738.38
2022-12-01T10:19:04.159Z,98731.22
2022-12-01T10:20:20.334Z,98737.34
2022-12-01T10:21:33.980Z,98737.47
2022-12-01T10:22:42.872Z,98735.94
2022-12-01T10:24:24.834Z,98740.41
2022-12-01T10:25:31.833Z,98736.41
2022-12-01T10:27:07.133Z,98738.69
2022-12-01T10:28:30.881Z,98736.34
2022-12-01T10:29:48.231Z,98741.44
2022-12-01T10:30:53.714Z,98732.84
2022-12-01T10:32:01.677Z,98719.78
2022-12-01T10:33:26.586Z,98724.28
2022-12-01T10:34:33.288Z,98718.94
2022-12-01T10:35:54.684Z,98715.28
2022-12-01T10:36:58.370Z,98716.75
2022-12-01T10:38:13.540Z,98711.28
2022-12-01T10:39:29.274Z,98718.06
2022-12-01T10:40:36.621Z,98723.25
2022-12-01T10:41:40.451Z,98722.19
2022-12-01T10:42:46.520Z,98718.56
2022-12-01T10:43:59.839Z,98716.06
2022-12-01T10:45:14.186Z,98726.47
2022-12-01T10:46:47.794Z,98721.53
2022-12-01T10:48:10.872Z,98722.69
2022-12-01T10:49:18.919Z,98720.81
2022-12-01T10:50:28.544Z,98716.97
2022-12-01T10:51:31.470Z,98710.34
2022-12-01T10:52:40.837Z,98718.97
2022-12-01T10:53:43.657Z,98713.91
2022-12-01T10:54:46.498Z,98722.06
2022-12-01T10:56:07.656Z,98711.75
2022-12-01T10:57:17.073Z,98712.47
2022-12-01T10:58:20.016Z,98716.16
2022-12-01T10:59:28.289Z,98723.94
2022-12-01T11:00:59.145Z,98723.38
2022-12-01T11:02:15.065Z,98717.34
2022-12-01T11:03:24.258Z,98713.25
2022-12-01T11:04:45.766Z,98721.84
2022-12-01T11:05:54.130Z,98722.84
2022-12-01T11:06:57.856Z,98722.00
2022-12-01T11:08:01.230Z,98722.25
2022-12-01T11:09:21.519Z,98714.28
2022-12-01T11:10:37.822Z,98720.72
2022-12-01T11:11:41.185Z,98714.13
2022-12-01T11:12:52.658Z,98717.72
2022-12-01T11:13:58.164Z,98712.84
2022-12-01T11:15:02.293Z,98708.56
2022-12-01T11:16:06.978Z,98707.88
2022-12-01T11:17:34.168Z,98706.34
2022-12-01T11:18:38.813Z,98703.25
2022-12-01T11:19:41.989Z,98698.47
2022-12-01T11:20:45.119Z,98699.78
2022-12-01T11:21:56.873Z,98700.09
2022-12-01T11:23:18.606Z,98694.84
2022-12-01T11:24:41.106Z,98685.19
2022-12-01T11:25:56.266Z,98689.97
2022-12-01T11:27:00.483Z,98693.78
2022-12-01T11:28:05.216Z,98689.84
2022-12-01T11:29:29.554Z,98690.94
2022-12-01T11:30:33.365Z,98694.56
2022-12-01T11:31:49.342Z,98701.09
2022-12-01T11:32:55.769Z,98687.22
2022-12-01T11:33:58.637Z,98691.38
2022-12-01T11:35:13.787Z,98686.19
2022-12-01T11:36:35.046Z,98684.59
2022-12-01T11:37:54.773Z,98686.28
2022-12-01T11:39:04.328Z,98690.66
2022-12-01T11:40:31.997Z,98684.25
2022-12-01T11:41:39.852Z,98687.03
2022-12-01T11:42:50.115Z,98687.31
2022-12-01T11:44:01.254Z,98679.31
2022-12-01T11:45:18.905Z,98683.41
2022-12-01T11:46:34.246Z,98681.81
2022-12-01T11:48:00.873Z,98685.03
2022-12-01T11:49:04.188Z,98681.81
2022-12-01T11:50:26.181Z,98674.94
2022-12-01T11:51:33.203Z,98681.81
2022-12-01T11:52:46.748Z,98682.50
2022-12-01T11:53:50.059Z,98676.47
2022-12-01T11:55:15.829Z,98681.87
2022-12-01T11:56:29.349Z,98680.09
2022-12-01T11:57:34.666Z,98680.13
2022-12-01T11:58:38.211Z,98681.31
2022-12-01T11:59:40.969Z,98680.97
2022-12-01T12:00:50.885Z,98682.03
2022-12-01T12:02:08.859Z,98682.75
2022-12-01T12:03:21.313Z,98685.50
2022-12-01T12:05:01.143Z,98684.25
2022-12-01T12:06:38.962Z,98679.28
2022-12-01T12:07:50.787Z,98681.03
2022-12-01T12:09:11.777Z,98681.47
2022-12-01T12:10:14.409Z,98684.25
2022-12-01T12:11:23.040Z,98675.09
2022-12-01T12:12:35.190Z,98678.56
2022-12-01T12:14:13.939Z,98682.63
2022-12-01T12:15:26.471Z,98681.69
2022-12-01T12:16:45.562Z,98682.47
2022-12-01T12:18:18.832Z,98676.16
2022-12-01T12:20:06.198Z,98676.91
2022-12-01T12:21:25.344Z,98676.88
2022-12-01T12:22:28.282Z,98678.22
2022-12-01T12:23:45.836Z,98670.16
2022-12-01T12:25:20.335Z,98675.53
2022-12-01T12:26:35.349Z,98674.87
2022-12-01T12:27:47.308Z,98670.72
2022-12-01T12:29:28.496Z,98676.06
2022-12-01T12:30:41.350Z,98669.69
2022-12-01T12:31:58.132Z,98671.81
2022-12-01T12:33:35.174Z,98671.22
2022-12-01T12:34:49.360Z,98673.75
2022-12-01T12:36:15.460Z,98682.50
2022-12-01T12:37:18.890Z,98675.28
2022-12-01T12:39:02.753Z,98674.56
2022-12-01T12:40:17.788Z,98674.31
2022-12-01T12:41:32.669Z,98680.69
2022-12-01T12:42:50.338Z,98674.66
2022-12-01T12:44:10.275Z,98669.69
2022-12-01T12:45:34.334Z,98671.88
2022-12-01T12:47:01.200Z,98679.28
2022-12-01T12:48:04.106Z,98669.53
2022-12-01T12:50:00.780Z,98669.81
2022-12-01T12:51:16.548Z,98675.94
2022-12-01T12:52:28.994Z,98669.34
2022-12-01T12:53:42.229Z,98674.47
2022-12-01T12:54:50.657Z,98669.72
2022-12-01T12:56:01.078Z,98666.53
2022-12-01T12:57:09.560Z,98668.00
2022-12-01T12:58:26.274Z,98673.34
2022-12-01T12:59:41.341Z,98668.97
2022-12-01T13:00:54.756Z,98674.63
2022-12-01T13:02:20.366Z,98670.44
2022-12-01T13:03:47.283Z,98675.00
2022-12-01T13:04:57.688Z,98665.13
2022-12-01T13:06:07.290Z,98678.38
2022-12-01T13:07:39.819Z,98672.06
2022-12-01T13:08:53.477Z,98675.25
2022-12-01T13:10:03.602Z,98667.47
2022-12-01T13:11:27.045Z,98664.06
2022-12-01T13:12:38.411Z,98663.69
2022-12-01T13:14:12.221Z,98663.78
2022-12-01T13:15:24.235Z,98664.22
2022-12-01T13:16:40.822Z,98664.78
2022-12-01T13:18:34.883Z,98667.06
2022-12-01T13:19:40.844Z,98668.97
2022-12-01T13:20:44.423Z,98669.34
2022-12-01T13:21:50.528Z,98670.81
2022-12-01T13:22:54.806Z,98673.50
2022-12-01T13:23:57.836Z,98674.87
2022-12-01T13:25:01.445Z,98667.59